createdAt,value
2022-08-24T00:00:16.717Z,17.6
2022-08-24T00:02:16.832Z,17.6
2022-08-24T00:04:17.386Z,17.6
2022-08-24T00:06:16.709Z,17.5
2022-08-24T00:08:16.724Z,17.5
2022-08-24T00:10:16.757Z,17.4
2022-08-24T00:12:16.724Z,17.4
2022-08-24T00:14:16.816Z,17.4
2022-08-24T00:16:16.861Z,17.4
2022-08-24T00:18:16.706Z,17.3
2022-08-24T00:20:16.731Z,17.3
2022-08-24T00:22:16.740Z,17.3
2022-08-24T00:24:16.706Z,17.3
2022-08-24T00:26:16.720Z,17.3
2022-08-24T00:28:16.752Z,17.2
2022-08-24T00:30:16.737Z,17.2
2022-08-24T00:32:16.765Z,17.2
2022-08-24T00:34:16.719Z,17.1
2022-08-24T00:36:16.809Z,17.1
2022-08-24T00:38:16.757Z,17.1
2022-08-24T00:40:16.793Z,17.1
2022-08-24T00:42:16.696Z,17.1
2022-08-24T00:44:16.716Z,17.1
2022-08-24T00:46:16.720Z,17.1
2022-08-24T00:48:16.709Z,17.0
2022-08-24T00:50:16.700Z,17.0
2022-08-24T00:52:16.697Z,17.0
2022-08-24T00:54:16.720Z,16.9
2022-08-24T00:56:16.774Z,16.9
2022-08-24T00:58:17.211Z,16.9
2022-08-24T01:00:16.720Z,16.9
2022-08-24T01:02:16.762Z,16.9
2022-08-24T01:04:16.727Z,16.8
2022-08-24T01:06:16.718Z,16.8
2022-08-24T01:08:16.745Z,16.8
2022-08-24T01:10:16.711Z,16.8
2022-08-24T01:12:16.790Z,16.8
2022-08-24T01:14:16.813Z,16.7
2022-08-24T01:16:16.819Z,16.7
2022-08-24T01:18:19.245Z,16.7
2022-08-24T01:20:19.264Z,16.7
2022-08-24T01:22:19.263Z,16.6
2022-08-24T01:24:19.272Z,16.6
2022-08-24T01:26:19.244Z,16.6
2022-08-24T01:28:25.552Z,16.5
2022-08-24T01:30:21.958Z,16.5
2022-08-24T01:32:19.248Z,16.5
2022-08-24T01:34:19.367Z,16.4
2022-08-24T01:36:19.259Z,16.4
2022-08-24T01:38:19.250Z,16.4
2022-08-24T01:40:19.332Z,16.4
2022-08-24T01:42:19.273Z,16.4
2022-08-24T01:44:19.276Z,16.4
2022-08-24T01:46:19.349Z,16.4
2022-08-24T01:48:22.724Z,16.4
2022-08-24T01:50:19.263Z,16.4
2022-08-24T01:52:19.248Z,16.3
2022-08-24T01:54:19.282Z,16.3
2022-08-24T01:56:19.264Z,16.3
2022-08-24T01:58:19.282Z,16.3
2022-08-24T02:00:19.337Z,16.2
2022-08-24T02:02:19.328Z,16.2
2022-08-24T02:04:19.353Z,16.2
2022-08-24T02:06:19.299Z,16.2
2022-08-24T02:08:19.302Z,16.1
2022-08-24T02:10:19.279Z,16.1
2022-08-24T02:12:19.271Z,16.1
2022-08-24T02:14:19.291Z,16.2
2022-08-24T02:16:19.372Z,16.2
2022-08-24T02:18:19.366Z,16.2
2022-08-24T02:20:19.330Z,16.2
2022-08-24T02:22:19.288Z,16.2
2022-08-24T02:24:19.305Z,16.2
2022-08-24T02:26:19.294Z,16.1
2022-08-24T02:28:19.316Z,16.1
2022-08-24T02:30:19.302Z,16.1
2022-08-24T02:32:19.316Z,16.1
2022-08-24T02:34:19.319Z,16.1
2022-08-24T02:36:25.578Z,16.1
2022-08-24T02:38:19.368Z,16.1
2022-08-24T02:40:19.369Z,16.1
2022-08-24T02:42:19.310Z,16.1
2022-08-24T02:44:19.305Z,16.0
2022-08-24T02:46:19.406Z,16.0
2022-08-24T02:48:19.314Z,15.9
2022-08-24T02:50:19.327Z,15.9
2022-08-24T02:52:19.334Z,15.9
2022-08-24T02:54:19.372Z,15.9
2022-08-24T02:56:19.329Z,15.9
2022-08-24T02:58:19.349Z,15.8
2022-08-24T03:00:19.337Z,15.8
2022-08-24T03:02:19.445Z,15.8
2022-08-24T03:04:19.377Z,15.8
2022-08-24T03:06:19.398Z,15.8
2022-08-24T03:08:19.390Z,15.7
2022-08-24T03:10:19.386Z,15.7
2022-08-24T03:12:19.404Z,15.7
2022-08-24T03:14:19.418Z,15.7
2022-08-24T03:16:19.560Z,15.7
2022-08-24T03:18:19.437Z,15.6
2022-08-24T03:20:19.348Z,15.6
2022-08-24T03:22:19.342Z,15.6
2022-08-24T03:24:19.352Z,15.6
2022-08-24T03:26:19.361Z,15.5
2022-08-24T03:28:19.357Z,15.5
2022-08-24T03:30:19.331Z,15.4
2022-08-24T03:32:19.820Z,15.4
2022-08-24T03:34:19.771Z,15.4
2022-08-24T03:36:19.729Z,15.4
2022-08-24T03:38:19.770Z,15.4
2022-08-24T03:40:22.540Z,15.4
2022-08-24T03:42:19.868Z,15.4
2022-08-24T03:44:23.045Z,15.5
2022-08-24T03:46:19.886Z,15.4
2022-08-24T03:48:19.816Z,15.4
2022-08-24T03:50:19.739Z,15.4
2022-08-24T03:52:19.733Z,15.4
2022-08-24T03:54:19.747Z,15.4
2022-08-24T03:56:19.887Z,15.4
2022-08-24T03:58:19.761Z,15.3
2022-08-24T04:00:19.740Z,15.3
2022-08-24T04:02:19.833Z,15.3
2022-08-24T04:04:19.856Z,15.3
2022-08-24T04:06:19.784Z,15.3
2022-08-24T04:08:19.420Z,15.3
2022-08-24T04:10:19.436Z,15.2
2022-08-24T04:12:19.481Z,15.2
2022-08-24T04:14:26.985Z,15.2
2022-08-24T04:16:19.687Z,15.2
2022-08-24T04:18:19.465Z,15.2
2022-08-24T04:20:19.445Z,15.2
2022-08-24T04:22:19.453Z,15.2
2022-08-24T04:24:19.451Z,15.2
2022-08-24T04:26:28.738Z,15.2
2022-08-24T04:28:19.458Z,15.2
2022-08-24T04:30:19.506Z,15.2
2022-08-24T04:32:19.439Z,15.1
2022-08-24T04:34:19.465Z,15.2
2022-08-24T04:36:19.456Z,15.2
2022-08-24T04:38:19.472Z,15.3
2022-08-24T04:40:19.655Z,15.3
2022-08-24T04:42:19.482Z,15.3
2022-08-24T04:44:19.460Z,15.4
2022-08-24T04:46:19.480Z,15.4
2022-08-24T04:48:19.482Z,15.5
2022-08-24T04:50:19.479Z,15.5
2022-08-24T04:52:19.472Z,15.4
2022-08-24T04:54:19.488Z,15.5
2022-08-24T04:56:20.274Z,15.5
2022-08-24T04:58:19.484Z,15.5
2022-08-24T05:00:19.550Z,15.6
2022-08-24T05:02:19.590Z,15.6
2022-08-24T05:04:19.650Z,15.7
2022-08-24T05:06:19.488Z,15.8
2022-08-24T05:08:19.509Z,15.8
2022-08-24T05:10:19.494Z,15.9
2022-08-24T05:12:19.475Z,16.1
2022-08-24T05:14:19.490Z,16.1
2022-08-24T05:16:19.587Z,16.1
2022-08-24T05:18:19.563Z,16.2
2022-08-24T05:20:19.549Z,16.2
2022-08-24T05:22:19.514Z,16.3
2022-08-24T05:24:19.567Z,16.3
2022-08-24T05:26:19.535Z,16.3
2022-08-24T05:28:19.508Z,16.3
2022-08-24T05:30:19.499Z,16.4
2022-08-24T05:32:19.689Z,16.4
2022-08-24T05:34:19.508Z,16.5
2022-08-24T05:36:19.468Z,16.6
2022-08-24T05:38:19.516Z,16.7
2022-08-24T05:40:19.583Z,16.7
2022-08-24T05:42:19.493Z,16.7
2022-08-24T05:44:19.477Z,16.8
2022-08-24T05:46:19.678Z,16.9
2022-08-24T05:48:19.479Z,17.1
2022-08-24T05:50:19.505Z,17.2
2022-08-24T05:52:19.680Z,17.2
2022-08-24T05:54:19.461Z,17.1
2022-08-24T05:56:19.517Z,17.1
2022-08-24T05:58:30.587Z,17.2
2022-08-24T06:00:19.504Z,17.3
2022-08-24T06:02:19.792Z,17.3
2022-08-24T06:04:19.548Z,17.3
2022-08-24T06:06:19.567Z,17.3
2022-08-24T06:08:19.546Z,17.3
2022-08-24T06:10:36.445Z,17.3
2022-08-24T06:12:19.549Z,17.3
2022-08-24T06:14:21.877Z,17.3
2022-08-24T06:16:21.795Z,17.4
2022-08-24T06:18:19.628Z,17.3
2022-08-24T06:20:19.571Z,17.4
2022-08-24T06:22:19.569Z,17.4
2022-08-24T06:24:19.573Z,17.4
2022-08-24T06:26:23.086Z,17.6
2022-08-24T06:28:19.624Z,17.5
2022-08-24T06:30:19.567Z,17.6
2022-08-24T06:32:19.586Z,17.4
2022-08-24T06:34:19.620Z,17.5
2022-08-24T06:36:22.608Z,17.5
2022-08-24T06:38:19.606Z,17.5
2022-08-24T06:40:19.643Z,17.4
2022-08-24T06:42:19.577Z,17.5
2022-08-24T06:44:19.583Z,17.6
2022-08-24T06:46:23.682Z,17.6
2022-08-24T06:48:19.574Z,17.6
2022-08-24T06:50:19.577Z,17.6
2022-08-24T06:52:19.632Z,17.6
2022-08-24T06:54:19.580Z,17.6
2022-08-24T06:56:19.605Z,17.7
2022-08-24T06:58:19.600Z,17.8
2022-08-24T07:00:19.608Z,17.7
2022-08-24T07:02:19.584Z,17.7
2022-08-24T07:04:19.588Z,17.7
2022-08-24T07:06:19.598Z,17.8
2022-08-24T07:08:19.644Z,17.8
2022-08-24T07:10:23.039Z,17.8
2022-08-24T07:12:19.626Z,17.8
2022-08-24T07:14:19.589Z,17.8
2022-08-24T07:16:19.736Z,17.8
2022-08-24T07:18:19.604Z,17.8
2022-08-24T07:20:19.593Z,17.9
2022-08-24T07:22:19.633Z,17.9
2022-08-24T07:24:19.608Z,17.9
2022-08-24T07:26:22.030Z,18.0
2022-08-24T07:28:31.668Z,17.9
2022-08-24T07:30:27.912Z,17.9
2022-08-24T07:32:19.595Z,17.9
2022-08-24T07:34:19.625Z,18.0
2022-08-24T07:36:22.583Z,18.0
2022-08-24T07:38:19.639Z,18.1
2022-08-24T07:40:17.158Z,18.1
2022-08-24T07:42:23.232Z,18.1
2022-08-24T07:44:17.166Z,18.1
2022-08-24T07:46:17.180Z,18.2
2022-08-24T07:48:17.161Z,18.3
2022-08-24T07:50:17.131Z,18.3
2022-08-24T07:52:17.222Z,18.3
2022-08-24T07:54:17.136Z,18.3
2022-08-24T07:56:17.158Z,18.4
2022-08-24T07:58:17.142Z,18.4
2022-08-24T08:00:17.182Z,18.5
2022-08-24T08:02:17.198Z,18.6
2022-08-24T08:04:17.116Z,18.6
2022-08-24T08:06:17.144Z,18.6
2022-08-24T08:08:17.136Z,18.6
2022-08-24T08:10:17.125Z,18.6
2022-08-24T08:12:17.112Z,18.6
2022-08-24T08:14:17.156Z,18.6
2022-08-24T08:16:17.182Z,18.6
2022-08-24T08:18:17.118Z,18.7
2022-08-24T08:20:19.411Z,18.8
2022-08-24T08:22:17.165Z,18.8
2022-08-24T08:24:17.189Z,18.8
2022-08-24T08:26:17.153Z,18.9
2022-08-24T08:28:25.059Z,19.1
2022-08-24T08:30:17.142Z,19.1
2022-08-24T08:32:17.245Z,19.2
2022-08-24T08:34:17.213Z,19.3
2022-08-24T08:36:17.139Z,19.6
2022-08-24T08:38:17.159Z,19.8
2022-08-24T08:40:17.275Z,19.9
2022-08-24T08:42:17.162Z,20.1
2022-08-24T08:44:17.171Z,20.3
2022-08-24T08:46:17.285Z,20.5
2022-08-24T08:48:17.187Z,20.5
2022-08-24T08:50:17.214Z,20.7
2022-08-24T08:52:17.172Z,21.1
2022-08-24T08:54:17.166Z,21.1
2022-08-24T08:56:17.167Z,21.1
2022-08-24T08:58:17.178Z,21.1
2022-08-24T09:00:17.189Z,20.9
2022-08-24T09:02:17.226Z,21.1
2022-08-24T09:04:21.265Z,21.3
2022-08-24T09:06:17.266Z,21.4
2022-08-24T09:08:17.221Z,21.5
2022-08-24T09:10:17.170Z,21.8
2022-08-24T09:12:17.164Z,21.7
2022-08-24T09:14:17.193Z,21.5
2022-08-24T09:16:17.256Z,21.4
2022-08-24T09:18:17.186Z,21.4
2022-08-24T09:20:17.259Z,21.4
2022-08-24T09:22:17.248Z,21.4
2022-08-24T09:24:17.202Z,21.7
2022-08-24T09:26:19.103Z,21.8
2022-08-24T09:28:17.211Z,22.1
2022-08-24T09:30:17.227Z,22.2
2022-08-24T09:32:18.249Z,22.3
2022-08-24T09:34:17.207Z,22.4
2022-08-24T09:36:17.212Z,22.6
2022-08-24T09:38:17.248Z,22.4
2022-08-24T09:40:17.340Z,22.4
2022-08-24T09:42:17.242Z,22.5
2022-08-24T09:44:17.210Z,22.7
2022-08-24T09:46:17.259Z,22.6
2022-08-24T09:48:17.197Z,22.6
2022-08-24T09:50:17.224Z,22.6
2022-08-24T09:52:17.226Z,22.4
2022-08-24T09:54:17.265Z,22.4
2022-08-24T09:56:17.230Z,22.3
2022-08-24T09:58:17.254Z,22.4
2022-08-24T10:00:17.236Z,22.6
2022-08-24T10:02:17.349Z,22.7
2022-08-24T10:04:17.268Z,22.7
2022-08-24T10:06:17.426Z,22.4
2022-08-24T10:08:17.282Z,22.3
2022-08-24T10:10:17.312Z,22.3
2022-08-24T10:12:17.280Z,22.3
2022-08-24T10:14:17.293Z,22.3
2022-08-24T10:16:17.377Z,22.3
2022-08-24T10:18:17.294Z,22.3
2022-08-24T10:20:17.283Z,22.3
2022-08-24T10:22:17.357Z,22.2
2022-08-24T10:24:17.326Z,22.2
2022-08-24T10:26:17.268Z,22.2
2022-08-24T10:28:17.395Z,22.2
2022-08-24T10:30:23.749Z,22.3
2022-08-24T10:32:17.309Z,22.2
2022-08-24T10:34:17.278Z,22.2
2022-08-24T10:36:21.106Z,22.1
2022-08-24T10:38:17.291Z,22.1
2022-08-24T10:40:17.328Z,22.2
2022-08-24T10:42:17.282Z,22.2
2022-08-24T10:44:17.313Z,22.1
2022-08-24T10:46:17.314Z,22.0
2022-08-24T10:48:17.308Z,22.0
2022-08-24T10:50:17.325Z,22.1
2022-08-24T10:52:17.315Z,22.2
2022-08-24T10:54:17.325Z,22.5
2022-08-24T10:56:17.324Z,22.6
2022-08-24T10:58:17.393Z,22.6
2022-08-24T11:00:20.315Z,22.7
2022-08-24T11:02:17.580Z,22.9
2022-08-24T11:04:17.371Z,23.2
2022-08-24T11:06:17.333Z,23.3
2022-08-24T11:08:17.385Z,23.3
2022-08-24T11:10:17.344Z,23.6
2022-08-24T11:12:17.339Z,23.8
2022-08-24T11:14:17.403Z,23.8
2022-08-24T11:16:17.468Z,23.6
2022-08-24T11:18:17.363Z,23.6
2022-08-24T11:20:17.339Z,23.7
2022-08-24T11:22:17.361Z,23.7
2022-08-24T11:24:17.349Z,23.7
2022-08-24T11:26:17.324Z,23.5
2022-08-24T11:28:17.362Z,23.4
2022-08-24T11:30:17.443Z,23.3
2022-08-24T11:32:17.359Z,23.3
2022-08-24T11:34:17.360Z,23.3
2022-08-24T11:36:21.098Z,23.3
2022-08-24T11:38:17.354Z,23.4
2022-08-24T11:40:17.413Z,23.6
2022-08-24T11:42:17.380Z,23.8
2022-08-24T11:44:17.383Z,23.9
2022-08-24T11:46:17.498Z,23.9
2022-08-24T11:48:17.375Z,23.8
2022-08-24T11:50:17.379Z,23.8
2022-08-24T11:52:17.388Z,23.9
2022-08-24T11:54:17.388Z,24.1
2022-08-24T11:56:20.391Z,24.0
2022-08-24T11:58:17.373Z,24.1
2022-08-24T12:00:17.396Z,24.2
2022-08-24T12:02:17.597Z,24.4
2022-08-24T12:04:17.381Z,24.5
2022-08-24T12:06:17.388Z,24.6
2022-08-24T12:08:17.401Z,24.6
2022-08-24T12:10:17.397Z,24.4
2022-08-24T12:12:17.384Z,24.5
2022-08-24T12:14:17.393Z,24.7
2022-08-24T12:16:17.461Z,24.9
2022-08-24T12:18:17.376Z,25.2
2022-08-24T12:20:17.421Z,25.3
2022-08-24T12:22:17.418Z,25.7
2022-08-24T12:24:17.416Z,25.8
2022-08-24T12:26:17.448Z,25.6
2022-08-24T12:28:17.426Z,25.4
2022-08-24T12:30:17.402Z,25.3
2022-08-24T12:32:17.400Z,25.1
2022-08-24T12:34:17.495Z,25.2
2022-08-24T12:36:17.417Z,25.5
2022-08-24T12:38:17.397Z,25.8
2022-08-24T12:40:17.549Z,26.1
2022-08-24T12:42:17.428Z,26.0
2022-08-24T12:44:17.465Z,25.8
2022-08-24T12:46:17.516Z,25.8
2022-08-24T12:48:17.472Z,25.8
2022-08-24T12:50:17.501Z,25.8
2022-08-24T12:52:17.446Z,25.6
2022-08-24T12:54:17.450Z,25.5
2022-08-24T12:56:17.430Z,25.3
2022-08-24T12:58:31.466Z,25.2
2022-08-24T13:00:17.441Z,25.2
2022-08-24T13:02:17.481Z,25.2
2022-08-24T13:04:17.408Z,25.2
2022-08-24T13:06:17.497Z,25.3
2022-08-24T13:08:17.515Z,25.2
2022-08-24T13:10:17.466Z,25.3
2022-08-24T13:12:17.450Z,25.4
2022-08-24T13:14:17.460Z,25.4
2022-08-24T13:16:17.544Z,25.4
2022-08-24T13:18:17.468Z,25.3
2022-08-24T13:20:17.522Z,25.4
2022-08-24T13:22:17.469Z,25.6
2022-08-24T13:24:19.789Z,26.0
2022-08-24T13:26:17.455Z,26.3
2022-08-24T13:28:17.483Z,26.3
2022-08-24T13:30:17.479Z,26.3
2022-08-24T13:32:17.466Z,26.2
2022-08-24T13:34:17.485Z,26.4
2022-08-24T13:36:17.500Z,26.6
2022-08-24T13:38:17.500Z,26.4
2022-08-24T13:40:17.532Z,26.3
2022-08-24T13:42:17.482Z,26.3
2022-08-24T13:44:17.488Z,26.4
2022-08-24T13:46:17.557Z,26.6
2022-08-24T13:48:17.485Z,26.6
2022-08-24T13:50:17.477Z,26.6
2022-08-24T13:52:17.512Z,26.4
2022-08-24T13:54:20.117Z,26.4
2022-08-24T13:56:17.509Z,26.4
2022-08-24T13:58:17.555Z,26.6
2022-08-24T14:00:17.681Z,26.7
2022-08-24T14:02:17.500Z,26.8
2022-08-24T14:04:17.645Z,26.9
2022-08-24T14:06:17.488Z,27.1
2022-08-24T14:08:17.480Z,27.1
2022-08-24T14:10:17.515Z,27.1
2022-08-24T14:12:17.567Z,26.9
2022-08-24T14:14:17.485Z,26.7
2022-08-24T14:16:17.592Z,26.7
2022-08-24T14:18:17.528Z,26.6
2022-08-24T14:20:22.461Z,26.6
2022-08-24T14:22:17.516Z,26.6
2022-08-24T14:24:17.525Z,26.6
2022-08-24T14:26:17.536Z,26.7
2022-08-24T14:28:17.591Z,26.7
2022-08-24T14:30:17.511Z,26.8
2022-08-24T14:32:17.535Z,26.9
2022-08-24T14:34:17.527Z,27.1
2022-08-24T14:36:17.548Z,26.9
2022-08-24T14:38:17.545Z,26.7
2022-08-24T14:40:17.632Z,26.7
2022-08-24T14:42:17.599Z,26.8
2022-08-24T14:44:17.559Z,27.1
2022-08-24T14:46:17.612Z,27.3
2022-08-24T14:48:17.638Z,27.3
2022-08-24T14:50:17.564Z,27.2
2022-08-24T14:52:17.570Z,27.3
2022-08-24T14:54:17.559Z,27.4
2022-08-24T14:56:19.982Z,27.5
2022-08-24T14:58:17.617Z,27.7
2022-08-24T15:00:17.600Z,27.6
2022-08-24T15:02:17.583Z,27.4
2022-08-24T15:04:17.662Z,27.3
2022-08-24T15:06:26.929Z,27.2
2022-08-24T15:08:18.297Z,27.2
2022-08-24T15:10:17.752Z,27.2
2022-08-24T15:12:17.638Z,27.1
2022-08-24T15:14:22.286Z,27.1
2022-08-24T15:16:17.686Z,26.9
2022-08-24T15:18:17.600Z,26.9
2022-08-24T15:20:17.599Z,26.8
2022-08-24T15:22:17.621Z,26.8
2022-08-24T15:24:17.682Z,26.7
2022-08-24T15:26:17.572Z,26.6
2022-08-24T15:28:17.587Z,26.7
2022-08-24T15:30:17.666Z,26.7
2022-08-24T15:32:17.884Z,26.7
2022-08-24T15:34:17.838Z,26.8
2022-08-24T15:36:17.981Z,27.0
2022-08-24T15:38:18.206Z,27.2
2022-08-24T15:40:18.124Z,27.3
2022-08-24T15:42:17.901Z,27.4
2022-08-24T15:44:21.346Z,27.3
2022-08-24T15:46:17.675Z,27.2
2022-08-24T15:48:17.627Z,27.0
2022-08-24T15:50:17.644Z,26.8
2022-08-24T15:52:17.615Z,26.7
2022-08-24T15:54:20.557Z,26.6
2022-08-24T15:56:17.602Z,26.5
2022-08-24T15:58:17.646Z,26.3
2022-08-24T16:00:17.622Z,26.2
2022-08-24T16:02:17.702Z,26.1
2022-08-24T16:04:17.613Z,26.1
2022-08-24T16:06:17.706Z,26.1
2022-08-24T16:08:17.669Z,26.1
2022-08-24T16:10:17.620Z,26.2
2022-08-24T16:12:17.660Z,26.2
2022-08-24T16:14:17.639Z,26.3
2022-08-24T16:16:17.711Z,26.3
2022-08-24T16:18:17.657Z,26.3
2022-08-24T16:20:17.669Z,26.3
2022-08-24T16:22:17.710Z,26.2
2022-08-24T16:24:17.658Z,26.3
2022-08-24T16:26:17.643Z,26.3
2022-08-24T16:28:17.632Z,26.3
2022-08-24T16:30:17.608Z,26.4
2022-08-24T16:32:23.342Z,26.4
2022-08-24T16:34:17.628Z,26.4
2022-08-24T16:36:17.654Z,26.7
2022-08-24T16:38:17.742Z,26.9
2022-08-24T16:40:17.692Z,26.9
2022-08-24T16:42:17.627Z,26.8
2022-08-24T16:44:17.695Z,26.7
2022-08-24T16:46:17.711Z,26.6
2022-08-24T16:48:17.606Z,26.5
2022-08-24T16:50:17.672Z,26.6
2022-08-24T16:52:17.663Z,26.6
2022-08-24T16:54:17.620Z,26.6
2022-08-24T16:56:17.638Z,26.6
2022-08-24T16:58:17.719Z,26.6
2022-08-24T17:00:17.707Z,26.6
2022-08-24T17:02:17.912Z,26.6
2022-08-24T17:04:17.924Z,26.6
2022-08-24T17:06:17.674Z,26.6
2022-08-24T17:08:17.713Z,26.6
2022-08-24T17:10:17.694Z,26.4
2022-08-24T17:12:17.700Z,26.3
2022-08-24T17:14:17.912Z,26.3
2022-08-24T17:16:17.776Z,26.2
2022-08-24T17:18:17.715Z,26.1
2022-08-24T17:20:17.695Z,26.1
2022-08-24T17:22:17.727Z,26.1
2022-08-24T17:24:17.686Z,26.1
2022-08-24T17:26:20.553Z,26.1
2022-08-24T17:28:17.714Z,25.9
2022-08-24T17:30:17.716Z,25.8
2022-08-24T17:32:17.692Z,25.8
2022-08-24T17:34:17.709Z,25.8
2022-08-24T17:36:17.727Z,25.7
2022-08-24T17:38:17.767Z,25.7
2022-08-24T17:40:17.965Z,25.6
2022-08-24T17:42:40.302Z,25.6
2022-08-24T17:44:17.717Z,25.5
2022-08-24T17:46:17.878Z,25.4
2022-08-24T17:48:17.730Z,25.3
2022-08-24T17:50:17.729Z,25.2
2022-08-24T17:52:17.741Z,25.1
2022-08-24T17:54:17.789Z,25.0
2022-08-24T17:56:17.737Z,24.9
2022-08-24T17:58:17.890Z,24.7
2022-08-24T18:00:17.739Z,24.7
2022-08-24T18:02:17.721Z,24.6
2022-08-24T18:04:17.846Z,24.6
2022-08-24T18:06:17.785Z,24.4
2022-08-24T18:08:17.762Z,24.3
2022-08-24T18:10:17.722Z,24.2
2022-08-24T18:12:17.742Z,24.2
2022-08-24T18:14:17.776Z,24.1
2022-08-24T18:16:17.818Z,23.9
2022-08-24T18:18:17.771Z,23.9
2022-08-24T18:20:17.751Z,23.8
2022-08-24T18:22:17.817Z,23.7
2022-08-24T18:24:18.002Z,23.7
2022-08-24T18:26:17.933Z,23.6
2022-08-24T18:28:17.776Z,23.5
2022-08-24T18:30:17.932Z,23.4
2022-08-24T18:32:17.786Z,23.3
2022-08-24T18:34:17.770Z,23.2
2022-08-24T18:36:17.860Z,23.2
2022-08-24T18:38:17.972Z,23.0
2022-08-24T18:40:21.245Z,22.9
2022-08-24T18:42:17.827Z,22.9
2022-08-24T18:44:17.765Z,22.8
2022-08-24T18:46:17.913Z,22.7
2022-08-24T18:48:18.192Z,22.6
2022-08-24T18:50:17.874Z,22.4
2022-08-24T18:52:17.851Z,22.4
2022-08-24T18:54:18.042Z,22.3
2022-08-24T18:56:17.801Z,22.2
2022-08-24T18:58:18.067Z,22.2
2022-08-24T19:00:17.839Z,22.1
2022-08-24T19:02:17.932Z,22.1
2022-08-24T19:04:18.089Z,22.0
2022-08-24T19:06:18.905Z,21.9
2022-08-24T19:08:19.609Z,21.8
2022-08-24T19:10:18.104Z,21.8
2022-08-24T19:12:17.961Z,21.7
2022-08-24T19:14:17.813Z,21.7
2022-08-24T19:16:17.898Z,21.6
2022-08-24T19:18:18.115Z,21.5
2022-08-24T19:20:18.511Z,21.4
2022-08-24T19:22:18.088Z,21.4
2022-08-24T19:24:18.043Z,21.3
2022-08-24T19:26:18.765Z,21.3
2022-08-24T19:28:18.104Z,21.2
2022-08-24T19:30:18.125Z,21.2
2022-08-24T19:32:21.749Z,21.1
2022-08-24T19:34:18.943Z,21.1
2022-08-24T19:36:17.926Z,21.0
2022-08-24T19:38:20.885Z,20.9
2022-08-24T19:40:18.352Z,20.9
2022-08-24T19:42:17.869Z,20.8
2022-08-24T19:44:27.463Z,20.8
2022-08-24T19:46:18.351Z,20.8
2022-08-24T19:48:18.204Z,20.7
2022-08-24T19:50:21.232Z,20.7
2022-08-24T19:52:18.256Z,20.7
2022-08-24T19:54:17.961Z,20.6
2022-08-24T19:56:17.901Z,20.6
2022-08-24T19:58:17.842Z,20.6
2022-08-24T20:00:17.906Z,20.5
2022-08-24T20:02:18.256Z,20.5
2022-08-24T20:04:18.043Z,20.4
2022-08-24T20:06:17.935Z,20.3
2022-08-24T20:08:17.866Z,20.3
2022-08-24T20:10:17.866Z,20.3
2022-08-24T20:12:17.847Z,20.2
2022-08-24T20:14:17.886Z,20.2
2022-08-24T20:16:17.886Z,20.1
2022-08-24T20:18:17.927Z,20.1
2022-08-24T20:20:17.871Z,20.1
2022-08-24T20:22:17.850Z,20.1
2022-08-24T20:24:17.865Z,20.0
2022-08-24T20:26:17.863Z,19.9
2022-08-24T20:28:37.794Z,19.9
2022-08-24T20:30:17.965Z,19.9
2022-08-24T20:32:17.865Z,19.9
2022-08-24T20:34:17.888Z,19.9
2022-08-24T20:36:17.858Z,19.8
2022-08-24T20:38:17.898Z,19.8
2022-08-24T20:40:17.969Z,19.8
2022-08-24T20:42:21.281Z,19.7
2022-08-24T20:44:17.852Z,19.7
2022-08-24T20:46:17.983Z,19.7
2022-08-24T20:48:17.870Z,19.7
2022-08-24T20:50:17.874Z,19.7
2022-08-24T20:52:17.848Z,19.6
2022-08-24T20:54:17.881Z,19.6
2022-08-24T20:56:17.938Z,19.5
2022-08-24T20:58:17.898Z,19.4
2022-08-24T21:00:17.900Z,19.5
2022-08-24T21:02:17.878Z,19.4
2022-08-24T21:04:17.919Z,19.4
2022-08-24T21:06:17.931Z,19.4
2022-08-24T21:08:17.934Z,19.3
2022-08-24T21:10:17.914Z,19.3
2022-08-24T21:12:17.970Z,19.2
2022-08-24T21:14:17.929Z,19.2
2022-08-24T21:16:17.974Z,19.1
2022-08-24T21:18:17.906Z,19.1
2022-08-24T21:20:17.924Z,19.1
2022-08-24T21:22:17.926Z,19.0
2022-08-24T21:24:17.922Z,19.0
2022-08-24T21:26:17.923Z,19.0
2022-08-24T21:28:17.934Z,18.9
2022-08-24T21:30:17.944Z,18.9
2022-08-24T21:32:17.949Z,18.9
2022-08-24T21:34:17.931Z,18.9
2022-08-24T21:36:17.956Z,18.9
2022-08-24T21:38:17.999Z,18.8
2022-08-24T21:40:18.021Z,18.8
2022-08-24T21:42:20.021Z,18.8
2022-08-24T21:44:17.944Z,18.8
2022-08-24T21:46:18.004Z,18.7
2022-08-24T21:48:17.956Z,18.7
2022-08-24T21:50:17.969Z,18.7
2022-08-24T21:52:17.940Z,18.6
2022-08-24T21:54:17.996Z,18.6
2022-08-24T21:56:17.957Z,18.6
2022-08-24T21:58:18.000Z,18.6
2022-08-24T22:00:17.940Z,18.6
2022-08-24T22:02:20.641Z,18.6
2022-08-24T22:04:17.952Z,18.5
2022-08-24T22:06:18.022Z,18.5
2022-08-24T22:08:17.938Z,18.5
2022-08-24T22:10:17.945Z,18.4
2022-08-24T22:12:17.952Z,18.4
2022-08-24T22:14:17.939Z,18.4
2022-08-24T22:16:18.630Z,18.4
2022-08-24T22:18:18.223Z,18.4
2022-08-24T22:20:23.350Z,18.4
2022-08-24T22:22:17.960Z,18.3
2022-08-24T22:24:17.938Z,18.3
2022-08-24T22:26:17.928Z,18.3
2022-08-24T22:28:17.980Z,18.3
2022-08-24T22:30:17.972Z,18.2
2022-08-24T22:32:18.051Z,18.2
2022-08-24T22:34:20.759Z,18.2
2022-08-24T22:36:18.085Z,18.2
2022-08-24T22:38:18.068Z,18.2
2022-08-24T22:40:19.088Z,18.2
2022-08-24T22:42:17.985Z,18.1
2022-08-24T22:44:17.981Z,18.1
2022-08-24T22:46:18.064Z,18.1
2022-08-24T22:48:17.976Z,18.1
2022-08-24T22:50:18.004Z,18.1
2022-08-24T22:52:17.975Z,18.1
2022-08-24T22:54:17.980Z,18.1
2022-08-24T22:56:17.997Z,18.1
2022-08-24T22:58:18.001Z,18.1
2022-08-24T23:00:17.961Z,18.1
2022-08-24T23:02:18.047Z,18.1
2022-08-24T23:04:18.164Z,18.0
2022-08-24T23:06:18.039Z,18.0
2022-08-24T23:08:18.105Z,18.0
2022-08-24T23:10:18.156Z,17.9
2022-08-24T23:12:18.122Z,17.9
2022-08-24T23:14:18.062Z,17.9
2022-08-24T23:16:18.120Z,17.9
2022-08-24T23:18:18.006Z,17.9
2022-08-24T23:20:18.072Z,17.9
2022-08-24T23:22:18.033Z,17.9
2022-08-24T23:24:18.056Z,17.9
2022-08-24T23:26:18.200Z,17.9
2022-08-24T23:28:18.023Z,17.8
2022-08-24T23:30:18.026Z,17.8
2022-08-24T23:32:18.310Z,17.8
2022-08-24T23:34:18.062Z,17.7
2022-08-24T23:36:18.040Z,17.8
2022-08-24T23:38:18.061Z,17.7
2022-08-24T23:40:18.186Z,17.7
2022-08-24T23:42:18.091Z,17.7
2022-08-24T23:44:18.083Z,17.7
2022-08-24T23:46:18.166Z,17.6
2022-08-24T23:48:18.053Z,17.7
2022-08-24T23:50:18.052Z,17.7
2022-08-24T23:52:26.548Z,17.7
2022-08-24T23:54:18.075Z,17.7
2022-08-24T23:56:18.061Z,17.7
2022-08-24T23:58:18.108Z,17.6
